MET6020 - Boston to London Heathrow

Boeing 767-300
G-FLDH - Fly UK
6 hrs 40 mins
2832 nm
Fly UK Codeshare - Daily

Departure

Departing from
Boston (BOS)
Departure gate
Scheduled Departure
GMT 2225
Local 1725
METAR KBOS 221354Z 00000KT 8SM BKN090 BKN250 06/06 A2981 RMK AO2 SLP092 T00610056
TAF KBOS 221124Z 2212/2318 00000KT 6SM BR BKN150 FM221500 06010KT P6SM OVC008 FM221800 06013KT P6SM OVC008 FM230300 06011G20KT P6SM -DZ OVC020 FM231300 07014G32KT P6SM VCSH OVC020
  • No charts available

Arrival

Arriving at
London Heathrow (LHR)
Arrival gate
Ramp
Scheduled Arrival
GMT 0505
Local 0505
METAR EGLL 221350Z AUTO VRB02KT 7000 NCD 06/01 Q1027 NOSIG
TAF TAF EGLL 221058Z 2212/2318 VRB03KT 6000 FEW025 TEMPO 2212/2215 4800 HZ PROB30 TEMPO 2214/2217 9999 BECMG 2217/2220 4500 BR PROB30 2300/2302 0500 FZFG BKN000 PROB40 2302/2312 0200 FZFG VV/// PROB30 TEMPO 2312/2318 0500 FG BKN001

Route Map

Planning Resources

SWANN3.OOD J42 BOS ALLEX NAT_V ABDUK NUMPO UP2 BEDEK OCK2F
SWANN3 SWANN OOD J42 PUT J581 ENE J573 YSJ J571 YAY DOGAL UN544 DEVOL UL975 VAL UB3 HON BOVINGDON4A
CUNED COLUM EMIT11 V265 EMI V457 VINNY V405 MXE J75 CMK V196 SEALL V188 CARLD YODER BOROS V34 RHINA SHA UL9 ABAGU NUMPO PITEM CPT D104H D264O D150G LLE19 PILOK CI27R
KBWI SWANN3 OOD J42 BOS J575 TUSKY N55B YYT BEXET RSH VYL TOMO1D EPM EGLL
SWANN3 OOD J42 RBV J222 JFK PUT QUBIS N197C NAT_U MIMKU UL10 WAL UY53 BNN1B
Route:
OFP Layout:
Units:
Detailed Navlog:
ETOPS Planning:
Plan Stepclimbs:
Runway Analysis:
Include NOTAMS:
FIR NOTAMS:
Flight Maps:

Return Flights

MET4
Boeing 777-300ER
1400 GMT
MET92
Airbus A330-343
1100 GMT
MET102
Airbus A319-131
1600 GMT
MET6019 (Operated by Fly UK)
Boeing 767-300
1325 GMT

Popularity

Hub Current Bids PiReps this month Total PiReps
KMCI 0 0 4
KLAX 0 0 1
KBOS 0 0 0